sensor_id;sensor_type;location;lat;lon;timestamp;temperature;humidity
4908;DHT22;64375;51.540;7.364;2023-04-25T00:01:52;13.60;90.70
4908;DHT22;64375;51.540;7.364;2023-04-25T00:04:20;13.30;89.30
4908;DHT22;64375;51.540;7.364;2023-04-25T00:06:48;13.60;93.60
4908;DHT22;64375;51.540;7.364;2023-04-25T00:09:19;13.90;93.50
4908;DHT22;64375;51.540;7.364;2023-04-25T00:11:47;13.90;92.70
4908;DHT22;64375;51.540;7.364;2023-04-25T00:14:23;14.10;93.20
4908;DHT22;64375;51.540;7.364;2023-04-25T00:16:54;14.30;91.80
4908;DHT22;64375;51.540;7.364;2023-04-25T00:19:22;14.10;91.60
4908;DHT22;64375;51.540;7.364;2023-04-25T00:21:53;14.30;92.80
4908;DHT22;64375;51.540;7.364;2023-04-25T00:24:24;14.10;91.30
4908;DHT22;64375;51.540;7.364;2023-04-25T00:26:52;14.20;92.60
4908;DHT22;64375;51.540;7.364;2023-04-25T00:29:20;14.20;91.30
4908;DHT22;64375;51.540;7.364;2023-04-25T00:31:54;13.90;91.20
4908;DHT22;64375;51.540;7.364;2023-04-25T00:34:25;14.30;92.80
4908;DHT22;64375;51.540;7.364;2023-04-25T00:36:53;14.50;92.60
4908;DHT22;64375;51.540;7.364;2023-04-25T00:39:21;14.70;92.50
4908;DHT22;64375;51.540;7.364;2023-04-25T00:41:50;14.70;91.40
4908;DHT22;64375;51.540;7.364;2023-04-25T00:44:21;14.70;92.10
4908;DHT22;64375;51.540;7.364;2023-04-25T00:46:50;14.60;92.30
4908;DHT22;64375;51.540;7.364;2023-04-25T00:49:19;14.70;92.50
4908;DHT22;64375;51.540;7.364;2023-04-25T00:51:53;14.50;91.20
4908;DHT22;64375;51.540;7.364;2023-04-25T00:54:24;14.40;92.10
4908;DHT22;64375;51.540;7.364;2023-04-25T00:56:55;14.40;91.80
4908;DHT22;64375;51.540;7.364;2023-04-25T00:59:27;14.40;92.00
4908;DHT22;64375;51.540;7.364;2023-04-25T01:02:02;14.50;92.20
4908;DHT22;64375;51.540;7.364;2023-04-25T01:04:34;14.50;92.30
4908;DHT22;64375;51.540;7.364;2023-04-25T01:07:02;14.40;92.30
4908;DHT22;64375;51.540;7.364;2023-04-25T01:09:37;14.50;92.40
4908;DHT22;64375;51.540;7.364;2023-04-25T01:12:06;14.50;91.60
4908;DHT22;64375;51.540;7.364;2023-04-25T01:14:36;14.40;91.30
4908;DHT22;64375;51.540;7.364;2023-04-25T01:17:04;14.20;91.20
4908;DHT22;64375;51.540;7.364;2023-04-25T01:19:35;14.20;92.30
4908;DHT22;64375;51.540;7.364;2023-04-25T01:22:05;14.30;92.60
4908;DHT22;64375;51.540;7.364;2023-04-25T01:24:33;14.40;92.70
4908;DHT22;64375;51.540;7.364;2023-04-25T01:27:01;14.40;91.90
4908;DHT22;64375;51.540;7.364;2023-04-25T01:29:35;14.30;92.30
4908;DHT22;64375;51.540;7.364;2023-04-25T01:32:03;14.30;92.00
4908;DHT22;64375;51.540;7.364;2023-04-25T01:34:32;14.30;92.30
4908;DHT22;64375;51.540;7.364;2023-04-25T01:37:00;14.30;92.50
4908;DHT22;64375;51.540;7.364;2023-04-25T01:39:35;14.50;92.20
4908;DHT22;64375;51.540;7.364;2023-04-25T01:42:03;14.70;92.50
4908;DHT22;64375;51.540;7.364;2023-04-25T01:44:31;14.60;92.20
4908;DHT22;64375;51.540;7.364;2023-04-25T01:46:59;14.60;92.10
4908;DHT22;64375;51.540;7.364;2023-04-25T01:49:33;14.50;92.40
4908;DHT22;64375;51.540;7.364;2023-04-25T01:52:01;14.50;91.80
4908;DHT22;64375;51.540;7.364;2023-04-25T01:54:29;14.30;91.00
4908;DHT22;64375;51.540;7.364;2023-04-25T01:57:01;14.40;92.50
4908;DHT22;64375;51.540;7.364;2023-04-25T01:59:29;14.20;92.00
4908;DHT22;64375;51.540;7.364;2023-04-25T02:02:03;14.20;93.00
4908;DHT22;64375;51.540;7.364;2023-04-25T02:04:34;14.20;92.90
4908;DHT22;64375;51.540;7.364;2023-04-25T02:07:03;14.10;92.60
4908;DHT22;64375;51.540;7.364;2023-04-25T02:09:31;14.00;92.20
4908;DHT22;64375;51.540;7.364;2023-04-25T02:12:00;14.00;92.90
4908;DHT22;64375;51.540;7.364;2023-04-25T02:14:28;14.00;93.00
4908;DHT22;64375;51.540;7.364;2023-04-25T02:16:56;13.90;92.10
4908;DHT22;64375;51.540;7.364;2023-04-25T02:19:25;14.00;93.20
4908;DHT22;64375;51.540;7.364;2023-04-25T02:21:56;14.00;92.30
4908;DHT22;64375;51.540;7.364;2023-04-25T02:24:24;13.80;92.40
4908;DHT22;64375;51.540;7.364;2023-04-25T02:26:57;13.70;91.70
4908;DHT22;64375;51.540;7.364;2023-04-25T02:29:35;13.50;93.00
4908;DHT22;64375;51.540;7.364;2023-04-25T02:32:04;13.50;92.30
4908;DHT22;64375;51.540;7.364;2023-04-25T02:34:34;13.60;93.70
4908;DHT22;64375;51.540;7.364;2023-04-25T02:37:02;13.70;93.90
4908;DHT22;64375;51.540;7.364;2023-04-25T02:39:30;13.70;93.00
4908;DHT22;64375;51.540;7.364;2023-04-25T02:42:01;13.80;93.80
4908;DHT22;64375;51.540;7.364;2023-04-25T02:44:29;13.90;93.40
4908;DHT22;64375;51.540;7.364;2023-04-25T02:46:58;13.80;92.70
4908;DHT22;64375;51.540;7.364;2023-04-25T02:49:35;13.80;93.40
4908;DHT22;64375;51.540;7.364;2023-04-25T02:52:06;13.90;93.10
4908;DHT22;64375;51.540;7.364;2023-04-25T02:54:34;14.10;93.20
4908;DHT22;64375;51.540;7.364;2023-04-25T02:57:02;14.00;92.00
4908;DHT22;64375;51.540;7.364;2023-04-25T02:59:30;13.90;91.70
4908;DHT22;64375;51.540;7.364;2023-04-25T03:01:59;13.70;92.10
4908;DHT22;64375;51.540;7.364;2023-04-25T03:04:27;13.80;93.20
4908;DHT22;64375;51.540;7.364;2023-04-25T03:07:01;14.00;93.80
4908;DHT22;64375;51.540;7.364;2023-04-25T03:09:29;14.00;93.20
4908;DHT22;64375;51.540;7.364;2023-04-25T03:11:57;14.00;93.10
4908;DHT22;64375;51.540;7.364;2023-04-25T03:14:28;14.10;93.50
4908;DHT22;64375;51.540;7.364;2023-04-25T03:17:01;14.10;92.60
4908;DHT22;64375;51.540;7.364;2023-04-25T03:19:29;14.10;93.10
4908;DHT22;64375;51.540;7.364;2023-04-25T03:22:02;14.00;93.10
4908;DHT22;64375;51.540;7.364;2023-04-25T03:24:33;14.10;93.40
4908;DHT22;64375;51.540;7.364;2023-04-25T03:27:01;14.20;93.70
4908;DHT22;64375;51.540;7.364;2023-04-25T03:29:32;14.20;93.60
4908;DHT22;64375;51.540;7.364;2023-04-25T03:32:01;14.10;93.10
4908;DHT22;64375;51.540;7.364;2023-04-25T03:34:29;14.10;93.10
4908;DHT22;64375;51.540;7.364;2023-04-25T03:36:57;14.00;93.60
4908;DHT22;64375;51.540;7.364;2023-04-25T03:39:31;14.10;93.40
4908;DHT22;64375;51.540;7.364;2023-04-25T03:41:59;14.20;93.70
4908;DHT22;64375;51.540;7.364;2023-04-25T03:44:29;14.20;93.10
4908;DHT22;64375;51.540;7.364;2023-04-25T03:47:02;14.20;93.30
4908;DHT22;64375;51.540;7.364;2023-04-25T03:49:36;14.30;93.50
4908;DHT22;64375;51.540;7.364;2023-04-25T03:52:07;14.20;93.00
4908;DHT22;64375;51.540;7.364;2023-04-25T03:54:35;14.20;93.40
4908;DHT22;64375;51.540;7.364;2023-04-25T03:57:06;14.20;93.60
4908;DHT22;64375;51.540;7.364;2023-04-25T03:59:40;14.10;93.10
4908;DHT22;64375;51.540;7.364;2023-04-25T04:02:09;14.00;92.50
4908;DHT22;64375;51.540;7.364;2023-04-25T04:04:37;13.60;91.20
4908;DHT22;64375;51.540;7.364;2023-04-25T04:07:11;13.60;93.00
4908;DHT22;64375;51.540;7.364;2023-04-25T04:09:42;13.80;93.40
4908;DHT22;64375;51.540;7.364;2023-04-25T04:12:16;13.90;93.10
4908;DHT22;64375;51.540;7.364;2023-04-25T04:14:46;14.00;93.50
4908;DHT22;64375;51.540;7.364;2023-04-25T04:17:16;14.10;93.70
4908;DHT22;64375;51.540;7.364;2023-04-25T04:19:44;14.20;93.30
4908;DHT22;64375;51.540;7.364;2023-04-25T04:22:11;14.40;93.40
4908;DHT22;64375;51.540;7.364;2023-04-25T04:24:39;14.60;93.30
4908;DHT22;64375;51.540;7.364;2023-04-25T04:27:10;14.50;92.50
4908;DHT22;64375;51.540;7.364;2023-04-25T04:29:39;14.50;92.80
4908;DHT22;64375;51.540;7.364;2023-04-25T04:32:13;14.50;93.00
4908;DHT22;64375;51.540;7.364;2023-04-25T04:34:50;14.50;93.20
4908;DHT22;64375;51.540;7.364;2023-04-25T04:37:18;14.40;92.30
4908;DHT22;64375;51.540;7.364;2023-04-25T04:39:47;14.40;93.00
4908;DHT22;64375;51.540;7.364;2023-04-25T04:42:15;14.40;93.20
4908;DHT22;64375;51.540;7.364;2023-04-25T04:44:46;14.30;92.40
4908;DHT22;64375;51.540;7.364;2023-04-25T04:47:14;14.20;92.70
4908;DHT22;64375;51.540;7.364;2023-04-25T04:49:43;14.20;93.50
4908;DHT22;64375;51.540;7.364;2023-04-25T04:52:11;14.30;93.10
4908;DHT22;64375;51.540;7.364;2023-04-25T04:54:39;14.20;92.20
4908;DHT22;64375;51.540;7.364;2023-04-25T04:57:07;14.20;93.30
4908;DHT22;64375;51.540;7.364;2023-04-25T04:59:41;14.00;92.10
4908;DHT22;64375;51.540;7.364;2023-04-25T05:02:09;14.10;93.20
4908;DHT22;64375;51.540;7.364;2023-04-25T05:04:36;14.10;93.20
4908;DHT22;64375;51.540;7.364;2023-04-25T05:07:06;14.10;93.00
4908;DHT22;64375;51.540;7.364;2023-04-25T05:09:34;14.10;92.80
4908;DHT22;64375;51.540;7.364;2023-04-25T05:12:02;14.10;93.30
4908;DHT22;64375;51.540;7.364;2023-04-25T05:14:38;14.10;93.30
4908;DHT22;64375;51.540;7.364;2023-04-25T05:17:06;14.20;93.50
4908;DHT22;64375;51.540;7.364;2023-04-25T05:19:35;14.10;93.00
4908;DHT22;64375;51.540;7.364;2023-04-25T05:22:03;14.10;93.40
4908;DHT22;64375;51.540;7.364;2023-04-25T05:24:35;14.10;93.40
4908;DHT22;64375;51.540;7.364;2023-04-25T05:27:06;14.10;93.60
4908;DHT22;64375;51.540;7.364;2023-04-25T05:29:36;14.20;93.20
4908;DHT22;64375;51.540;7.364;2023-04-25T05:32:05;14.20;93.20
4908;DHT22;64375;51.540;7.364;2023-04-25T05:34:39;14.10;92.30
4908;DHT22;64375;51.540;7.364;2023-04-25T05:37:08;14.10;93.00
4908;DHT22;64375;51.540;7.364;2023-04-25T05:39:43;14.10;93.10
4908;DHT22;64375;51.540;7.364;2023-04-25T05:42:17;14.10;93.70
4908;DHT22;64375;51.540;7.364;2023-04-25T05:44:45;14.20;93.60
4908;DHT22;64375;51.540;7.364;2023-04-25T05:47:12;14.20;92.90
4908;DHT22;64375;51.540;7.364;2023-04-25T05:49:43;14.20;93.50
4908;DHT22;64375;51.540;7.364;2023-04-25T05:52:11;14.10;92.50
4908;DHT22;64375;51.540;7.364;2023-04-25T05:54:39;14.10;93.40
4908;DHT22;64375;51.540;7.364;2023-04-25T05:57:08;14.20;93.70
4908;DHT22;64375;51.540;7.364;2023-04-25T05:59:45;14.20;93.00
4908;DHT22;64375;51.540;7.364;2023-04-25T06:02:13;14.20;93.20
4908;DHT22;64375;51.540;7.364;2023-04-25T06:04:41;14.10;91.70
4908;DHT22;64375;51.540;7.364;2023-04-25T06:07:09;13.90;90.80
4908;DHT22;64375;51.540;7.364;2023-04-25T06:09:37;14.00;93.70
4908;DHT22;64375;51.540;7.364;2023-04-25T06:12:07;14.20;93.10
4908;DHT22;64375;51.540;7.364;2023-04-25T06:14:35;14.20;93.40
4908;DHT22;64375;51.540;7.364;2023-04-25T06:17:04;14.20;93.40
4908;DHT22;64375;51.540;7.364;2023-04-25T06:19:35;14.30;93.30
4908;DHT22;64375;51.540;7.364;2023-04-25T06:22:03;14.20;92.10
4908;DHT22;64375;51.540;7.364;2023-04-25T06:24:34;14.10;91.90
4908;DHT22;64375;51.540;7.364;2023-04-25T06:27:02;14.10;92.30
4908;DHT22;64375;51.540;7.364;2023-04-25T06:29:37;14.10;91.10
4908;DHT22;64375;51.540;7.364;2023-04-25T06:32:05;14.00;91.80
4908;DHT22;64375;51.540;7.364;2023-04-25T06:34:42;13.90;91.70
4908;DHT22;64375;51.540;7.364;2023-04-25T06:37:09;13.70;90.00
4908;DHT22;64375;51.540;7.364;2023-04-25T06:39:37;13.50;90.20
4908;DHT22;64375;51.540;7.364;2023-04-25T06:42:09;13.40;91.70
4908;DHT22;64375;51.540;7.364;2023-04-25T06:44:39;13.40;91.20
4908;DHT22;64375;51.540;7.364;2023-04-25T06:47:07;13.30;92.40
4908;DHT22;64375;51.540;7.364;2023-04-25T06:49:40;13.40;92.90
4908;DHT22;64375;51.540;7.364;2023-04-25T06:52:08;13.50;92.60
4908;DHT22;64375;51.540;7.364;2023-04-25T06:54:37;13.50;92.30
4908;DHT22;64375;51.540;7.364;2023-04-25T06:57:11;13.80;94.00
4908;DHT22;64375;51.540;7.364;2023-04-25T06:59:40;13.80;92.50
4908;DHT22;64375;51.540;7.364;2023-04-25T07:02:15;13.70;91.10
4908;DHT22;64375;51.540;7.364;2023-04-25T07:04:43;13.70;92.90
4908;DHT22;64375;51.540;7.364;2023-04-25T07:07:15;13.70;91.00
4908;DHT22;64375;51.540;7.364;2023-04-25T07:09:43;13.90;93.60
4908;DHT22;64375;51.540;7.364;2023-04-25T07:12:11;14.00;92.20
4908;DHT22;64375;51.540;7.364;2023-04-25T07:14:40;14.00;92.60
4908;DHT22;64375;51.540;7.364;2023-04-25T07:17:08;14.00;91.00
4908;DHT22;64375;51.540;7.364;2023-04-25T07:19:42;14.00;90.50
4908;DHT22;64375;51.540;7.364;2023-04-25T07:22:10;13.70;90.30
4908;DHT22;64375;51.540;7.364;2023-04-25T07:24:38;13.70;92.40
4908;DHT22;64375;51.540;7.364;2023-04-25T07:27:08;13.70;88.30
4908;DHT22;64375;51.540;7.364;2023-04-25T07:29:38;13.70;90.30
4908;DHT22;64375;51.540;7.364;2023-04-25T07:32:08;13.50;92.10
4908;DHT22;64375;51.540;7.364;2023-04-25T07:34:42;13.70;91.40
4908;DHT22;64375;51.540;7.364;2023-04-25T07:37:10;13.60;88.60
4908;DHT22;64375;51.540;7.364;2023-04-25T07:39:46;13.50;86.90
4908;DHT22;64375;51.540;7.364;2023-04-25T07:42:19;13.20;88.70
4908;DHT22;64375;51.540;7.364;2023-04-25T07:44:59;13.40;91.30
4908;DHT22;64375;51.540;7.364;2023-04-25T07:47:29;13.30;91.40
4908;DHT22;64375;51.540;7.364;2023-04-25T07:49:57;13.50;90.40
4908;DHT22;64375;51.540;7.364;2023-04-25T07:52:25;13.30;88.40
4908;DHT22;64375;51.540;7.364;2023-04-25T07:54:53;12.80;87.00
4908;DHT22;64375;51.540;7.364;2023-04-25T07:57:21;12.60;88.70
4908;DHT22;64375;51.540;7.364;2023-04-25T07:59:50;12.00;89.90
4908;DHT22;64375;51.540;7.364;2023-04-25T08:02:25;11.90;90.50
4908;DHT22;64375;51.540;7.364;2023-04-25T08:04:56;12.00;90.20
4908;DHT22;64375;51.540;7.364;2023-04-25T08:07:27;12.00;90.60
4908;DHT22;64375;51.540;7.364;2023-04-25T08:09:55;12.30;91.20
4908;DHT22;64375;51.540;7.364;2023-04-25T08:12:23;12.70;92.20
4908;DHT22;64375;51.540;7.364;2023-04-25T08:14:51;12.60;90.90
4908;DHT22;64375;51.540;7.364;2023-04-25T08:17:22;12.80;93.00
4908;DHT22;64375;51.540;7.364;2023-04-25T08:19:55;12.90;89.20
4908;DHT22;64375;51.540;7.364;2023-04-25T08:22:23;13.00;90.00
4908;DHT22;64375;51.540;7.364;2023-04-25T08:24:51;13.00;87.50
4908;DHT22;64375;51.540;7.364;2023-04-25T08:27:19;13.00;89.60
4908;DHT22;64375;51.540;7.364;2023-04-25T08:29:48;13.30;91.20
4908;DHT22;64375;51.540;7.364;2023-04-25T08:32:16;13.30;87.80
4908;DHT22;64375;51.540;7.364;2023-04-25T08:34:44;13.20;86.90
4908;DHT22;64375;51.540;7.364;2023-04-25T08:37:13;12.80;84.50
4908;DHT22;64375;51.540;7.364;2023-04-25T08:39:41;12.80;87.00
4908;DHT22;64375;51.540;7.364;2023-04-25T08:42:12;12.80;85.60
4908;DHT22;64375;51.540;7.364;2023-04-25T08:44:40;12.70;85.60
4908;DHT22;64375;51.540;7.364;2023-04-25T08:47:08;12.50;84.80
4908;DHT22;64375;51.540;7.364;2023-04-25T08:49:37;12.60;89.50
4908;DHT22;64375;51.540;7.364;2023-04-25T08:52:14;13.00;90.90
4908;DHT22;64375;51.540;7.364;2023-04-25T08:54:48;13.30;91.70
4908;DHT22;64375;51.540;7.364;2023-04-25T08:57:17;13.40;85.40
4908;DHT22;64375;51.540;7.364;2023-04-25T08:59:46;13.60;89.20
4908;DHT22;64375;51.540;7.364;2023-04-25T09:02:15;14.00;91.60
4908;DHT22;64375;51.540;7.364;2023-04-25T09:04:44;14.00;82.50
4908;DHT22;64375;51.540;7.364;2023-04-25T09:07:14;13.60;83.40
4908;DHT22;64375;51.540;7.364;2023-04-25T09:09:45;13.40;82.40
4908;DHT22;64375;51.540;7.364;2023-04-25T09:12:13;13.20;80.60
4908;DHT22;64375;51.540;7.364;2023-04-25T09:14:44;13.00;83.40
4908;DHT22;64375;51.540;7.364;2023-04-25T09:17:31;13.20;85.10
4908;DHT22;64375;51.540;7.364;2023-04-25T09:20:06;13.30;82.90
4908;DHT22;64375;51.540;7.364;2023-04-25T09:22:37;13.40;85.60
4908;DHT22;64375;51.540;7.364;2023-04-25T09:25:09;13.80;87.60
4908;DHT22;64375;51.540;7.364;2023-04-25T09:27:53;13.90;83.60
4908;DHT22;64375;51.540;7.364;2023-04-25T09:30:29;13.80;79.00
4908;DHT22;64375;51.540;7.364;2023-04-25T09:33:04;13.40;80.10
4908;DHT22;64375;51.540;7.364;2023-04-25T09:35:36;13.50;85.70
4908;DHT22;64375;51.540;7.364;2023-04-25T09:38:12;13.80;87.70
4908;DHT22;64375;51.540;7.364;2023-04-25T09:40:40;13.70;82.10
4908;DHT22;64375;51.540;7.364;2023-04-25T09:43:21;13.60;84.20
4908;DHT22;64375;51.540;7.364;2023-04-25T09:45:49;13.50;79.90
4908;DHT22;64375;51.540;7.364;2023-04-25T09:48:18;13.70;91.70
4908;DHT22;64375;51.540;7.364;2023-04-25T09:51:04;14.30;92.30
4908;DHT22;64375;51.540;7.364;2023-04-25T09:53:37;14.70;84.40
4908;DHT22;64375;51.540;7.364;2023-04-25T09:56:07;15.00;83.10
4908;DHT22;64375;51.540;7.364;2023-04-25T09:58:38;14.80;78.20
4908;DHT22;64375;51.540;7.364;2023-04-25T10:01:08;14.20;77.30
4908;DHT22;64375;51.540;7.364;2023-04-25T10:03:37;14.00;70.70
4908;DHT22;64375;51.540;7.364;2023-04-25T10:06:19;13.90;78.70
4908;DHT22;64375;51.540;7.364;2023-04-25T10:08:51;14.40;78.50
4908;DHT22;64375;51.540;7.364;2023-04-25T10:11:24;14.60;76.80
4908;DHT22;64375;51.540;7.364;2023-04-25T10:13:56;14.90;76.50
4908;DHT22;64375;51.540;7.364;2023-04-25T10:16:24;14.30;72.90
4908;DHT22;64375;51.540;7.364;2023-04-25T10:18:53;14.30;73.40
4908;DHT22;64375;51.540;7.364;2023-04-25T10:21:21;14.40;75.60
4908;DHT22;64375;51.540;7.364;2023-04-25T10:23:51;14.40;70.00
4908;DHT22;64375;51.540;7.364;2023-04-25T10:26:20;14.30;72.90
4908;DHT22;64375;51.540;7.364;2023-04-25T10:29:02;14.40;72.70
4908;DHT22;64375;51.540;7.364;2023-04-25T10:31:30;14.60;73.30
4908;DHT22;64375;51.540;7.364;2023-04-25T10:34:00;14.40;67.70
4908;DHT22;64375;51.540;7.364;2023-04-25T10:36:31;14.30;73.40
4908;DHT22;64375;51.540;7.364;2023-04-25T10:39:04;14.50;69.70
4908;DHT22;64375;51.540;7.364;2023-04-25T10:41:46;14.50;73.70
4908;DHT22;64375;51.540;7.364;2023-04-25T10:44:14;14.50;71.60
4908;DHT22;64375;51.540;7.364;2023-04-25T10:46:48;14.20;65.70
4908;DHT22;64375;51.540;7.364;2023-04-25T10:49:30;14.00;66.70
4908;DHT22;64375;51.540;7.364;2023-04-25T10:52:15;14.10;70.00
4908;DHT22;64375;51.540;7.364;2023-04-25T10:54:48;14.00;67.80
4908;DHT22;64375;51.540;7.364;2023-04-25T10:57:44;13.80;70.10
4908;DHT22;64375;51.540;7.364;2023-04-25T11:00:19;14.00;75.70
4908;DHT22;64375;51.540;7.364;2023-04-25T11:02:59;13.80;72.40
4908;DHT22;64375;51.540;7.364;2023-04-25T11:05:34;13.50;72.50
4908;DHT22;64375;51.540;7.364;2023-04-25T11:08:26;13.50;76.00
4908;DHT22;64375;51.540;7.364;2023-04-25T11:11:02;13.60;83.60
4908;DHT22;64375;51.540;7.364;2023-04-25T11:13:32;14.30;83.50
4908;DHT22;64375;51.540;7.364;2023-04-25T11:16:00;14.50;79.20
4908;DHT22;64375;51.540;7.364;2023-04-25T11:18:41;14.90;78.30
4908;DHT22;64375;51.540;7.364;2023-04-25T11:21:13;15.00;81.80
4908;DHT22;64375;51.540;7.364;2023-04-25T11:23:44;15.50;80.80
4908;DHT22;64375;51.540;7.364;2023-04-25T11:26:14;15.50;78.20
4908;DHT22;64375;51.540;7.364;2023-04-25T11:28:49;15.70;81.90
4908;DHT22;64375;51.540;7.364;2023-04-25T11:31:20;16.00;80.80
4908;DHT22;64375;51.540;7.364;2023-04-25T11:33:49;16.20;82.20
4908;DHT22;64375;51.540;7.364;2023-04-25T11:36:18;16.20;80.10
4908;DHT22;64375;51.540;7.364;2023-04-25T11:38:46;16.40;81.90
4908;DHT22;64375;51.540;7.364;2023-04-25T11:41:25;16.40;82.80
4908;DHT22;64375;51.540;7.364;2023-04-25T11:43:53;16.60;82.10
4908;DHT22;64375;51.540;7.364;2023-04-25T11:46:25;16.70;78.60
4908;DHT22;64375;51.540;7.364;2023-04-25T11:48:56;16.80;80.40
4908;DHT22;64375;51.540;7.364;2023-04-25T11:51:27;16.60;72.40
4908;DHT22;64375;51.540;7.364;2023-04-25T11:54:07;16.60;82.50
4908;DHT22;64375;51.540;7.364;2023-04-25T11:56:50;16.80;82.50
4908;DHT22;64375;51.540;7.364;2023-04-25T11:59:23;17.10;83.80
4908;DHT22;64375;51.540;7.364;2023-04-25T12:01:52;17.20;81.20
4908;DHT22;64375;51.540;7.364;2023-04-25T12:04:21;17.10;76.20
4908;DHT22;64375;51.540;7.364;2023-04-25T12:06:56;17.10;68.90
4908;DHT22;64375;51.540;7.364;2023-04-25T12:09:31;16.90;80.90
4908;DHT22;64375;51.540;7.364;2023-04-25T12:12:01;16.40;63.10
4908;DHT22;64375;51.540;7.364;2023-04-25T12:14:34;16.20;81.60
4908;DHT22;64375;51.540;7.364;2023-04-25T12:17:03;15.80;65.10
4908;DHT22;64375;51.540;7.364;2023-04-25T12:19:35;15.70;67.10
4908;DHT22;64375;51.540;7.364;2023-04-25T12:22:10;15.70;83.60
4908;DHT22;64375;51.540;7.364;2023-04-25T12:24:59;15.90;83.60
4908;DHT22;64375;51.540;7.364;2023-04-25T12:27:32;15.60;69.90
4908;DHT22;64375;51.540;7.364;2023-04-25T12:30:00;16.20;83.50
4908;DHT22;64375;51.540;7.364;2023-04-25T12:32:28;16.10;79.60
4908;DHT22;64375;51.540;7.364;2023-04-25T12:34:56;15.80;63.00
4908;DHT22;64375;51.540;7.364;2023-04-25T12:37:24;15.10;62.00
4908;DHT22;64375;51.540;7.364;2023-04-25T12:39:55;14.70;67.70
4908;DHT22;64375;51.540;7.364;2023-04-25T12:42:23;14.60;67.70
4908;DHT22;64375;51.540;7.364;2023-04-25T12:45:08;14.30;64.00
4908;DHT22;64375;51.540;7.364;2023-04-25T12:47:42;14.00;62.60
4908;DHT22;64375;51.540;7.364;2023-04-25T12:50:10;13.80;64.90
4908;DHT22;64375;51.540;7.364;2023-04-25T12:52:44;14.00;78.70
4908;DHT22;64375;51.540;7.364;2023-04-25T12:55:12;13.90;64.40
4908;DHT22;64375;51.540;7.364;2023-04-25T12:57:40;14.10;74.50
4908;DHT22;64375;51.540;7.364;2023-04-25T13:00:13;14.10;68.40
4908;DHT22;64375;51.540;7.364;2023-04-25T13:02:47;13.70;64.30
4908;DHT22;64375;51.540;7.364;2023-04-25T13:05:15;13.80;66.70
4908;DHT22;64375;51.540;7.364;2023-04-25T13:07:46;13.80;68.70
4908;DHT22;64375;51.540;7.364;2023-04-25T13:10:13;13.90;67.50
4908;DHT22;64375;51.540;7.364;2023-04-25T13:12:55;14.30;82.50
4908;DHT22;64375;51.540;7.364;2023-04-25T13:15:32;14.40;69.10
4908;DHT22;64375;51.540;7.364;2023-04-25T13:18:03;14.40;72.70
4908;DHT22;64375;51.540;7.364;2023-04-25T13:20:35;14.70;71.70
4908;DHT22;64375;51.540;7.364;2023-04-25T13:23:03;15.30;84.30
4908;DHT22;64375;51.540;7.364;2023-04-25T13:28:05;16.40;80.40
4908;DHT22;64375;51.540;7.364;2023-04-25T13:30:38;16.70;69.70
4908;DHT22;64375;51.540;7.364;2023-04-25T13:33:06;16.20;72.00
4908;DHT22;64375;51.540;7.364;2023-04-25T13:35:35;16.60;74.90
4908;DHT22;64375;51.540;7.364;2023-04-25T13:38:07;16.60;77.20
4908;DHT22;64375;51.540;7.364;2023-04-25T13:40:35;16.80;76.60
4908;DHT22;64375;51.540;7.364;2023-04-25T13:43:06;16.70;65.60
4908;DHT22;64375;51.540;7.364;2023-04-25T13:45:34;16.00;64.80
4908;DHT22;64375;51.540;7.364;2023-04-25T13:48:03;15.50;68.90
4908;DHT22;64375;51.540;7.364;2023-04-25T13:50:41;15.20;72.40
4908;DHT22;64375;51.540;7.364;2023-04-25T13:53:11;14.90;68.40
4908;DHT22;64375;51.540;7.364;2023-04-25T13:55:42;14.70;69.30
4908;DHT22;64375;51.540;7.364;2023-04-25T13:58:11;14.80;71.50
4908;DHT22;64375;51.540;7.364;2023-04-25T14:00:41;14.70;71.10
4908;DHT22;64375;51.540;7.364;2023-04-25T14:03:13;14.60;70.50
4908;DHT22;64375;51.540;7.364;2023-04-25T14:05:41;14.60;74.20
4908;DHT22;64375;51.540;7.364;2023-04-25T14:08:22;14.80;74.10
4908;DHT22;64375;51.540;7.364;2023-04-25T14:10:50;14.90;74.40
4908;DHT22;64375;51.540;7.364;2023-04-25T14:13:21;15.00;74.40
4908;DHT22;64375;51.540;7.364;2023-04-25T14:15:56;14.80;75.10
4908;DHT22;64375;51.540;7.364;2023-04-25T14:18:25;14.80;73.90
4908;DHT22;64375;51.540;7.364;2023-04-25T14:20:58;15.00;75.30
4908;DHT22;64375;51.540;7.364;2023-04-25T14:23:29;15.00;72.10
4908;DHT22;64375;51.540;7.364;2023-04-25T14:26:04;14.90;74.00
4908;DHT22;64375;51.540;7.364;2023-04-25T14:28:35;15.00;73.40
4908;DHT22;64375;51.540;7.364;2023-04-25T14:31:03;14.80;69.70
4908;DHT22;64375;51.540;7.364;2023-04-25T14:33:33;14.90;70.80
4908;DHT22;64375;51.540;7.364;2023-04-25T14:36:01;14.80;68.40
4908;DHT22;64375;51.540;7.364;2023-04-25T14:38:32;14.60;73.20
4908;DHT22;64375;51.540;7.364;2023-04-25T14:41:03;15.00;72.80
4908;DHT22;64375;51.540;7.364;2023-04-25T14:43:33;14.80;67.40
4908;DHT22;64375;51.540;7.364;2023-04-25T14:46:10;15.10;84.20
4908;DHT22;64375;51.540;7.364;2023-04-25T14:48:45;15.80;74.60
4908;DHT22;64375;51.540;7.364;2023-04-25T14:51:16;15.60;80.00
4908;DHT22;64375;51.540;7.364;2023-04-25T14:53:44;16.00;76.30
4908;DHT22;64375;51.540;7.364;2023-04-25T14:56:12;15.60;61.10
4908;DHT22;64375;51.540;7.364;2023-04-25T14:58:40;14.70;64.50
4908;DHT22;64375;51.540;7.364;2023-04-25T15:01:08;14.00;68.20
4908;DHT22;64375;51.540;7.364;2023-04-25T15:03:38;13.40;70.50
4908;DHT22;64375;51.540;7.364;2023-04-25T15:06:10;13.40;72.50
4908;DHT22;64375;51.540;7.364;2023-04-25T15:08:38;13.10;71.30
4908;DHT22;64375;51.540;7.364;2023-04-25T15:11:08;13.10;73.70
4908;DHT22;64375;51.540;7.364;2023-04-25T15:13:49;13.10;72.80
4908;DHT22;64375;51.540;7.364;2023-04-25T15:16:17;13.30;73.90
4908;DHT22;64375;51.540;7.364;2023-04-25T15:18:51;13.50;81.70
4908;DHT22;64375;51.540;7.364;2023-04-25T15:21:21;13.70;79.60
4908;DHT22;64375;51.540;7.364;2023-04-25T15:24:01;14.00;76.30
4908;DHT22;64375;51.540;7.364;2023-04-25T15:26:31;14.10;68.80
4908;DHT22;64375;51.540;7.364;2023-04-25T15:28:59;13.60;68.80
4908;DHT22;64375;51.540;7.364;2023-04-25T15:31:39;13.70;72.40
4908;DHT22;64375;51.540;7.364;2023-04-25T15:34:16;13.90;74.10
4908;DHT22;64375;51.540;7.364;2023-04-25T15:36:48;14.20;76.70
4908;DHT22;64375;51.540;7.364;2023-04-25T15:39:18;14.10;69.40
4908;DHT22;64375;51.540;7.364;2023-04-25T15:41:48;14.50;75.70
4908;DHT22;64375;51.540;7.364;2023-04-25T15:44:19;14.80;69.10
4908;DHT22;64375;51.540;7.364;2023-04-25T15:46:47;15.00;71.70
4908;DHT22;64375;51.540;7.364;2023-04-25T15:49:20;15.00;66.20
4908;DHT22;64375;51.540;7.364;2023-04-25T15:51:50;15.00;66.80
4908;DHT22;64375;51.540;7.364;2023-04-25T15:54:26;15.00;68.80
4908;DHT22;64375;51.540;7.364;2023-04-25T15:57:00;15.10;68.50
4908;DHT22;64375;51.540;7.364;2023-04-25T15:59:33;14.20;64.80
4908;DHT22;64375;51.540;7.364;2023-04-25T16:02:04;13.50;67.20
4908;DHT22;64375;51.540;7.364;2023-04-25T16:04:32;13.40;69.30
4908;DHT22;64375;51.540;7.364;2023-04-25T16:07:05;13.00;71.20
4908;DHT22;64375;51.540;7.364;2023-04-25T16:09:34;12.70;72.90
4908;DHT22;64375;51.540;7.364;2023-04-25T16:12:07;12.60;69.90